Terminal Aerodrome Forecast
Issued by NWS

Home | Current Version | Previous Version | Text Only | Print | Product List | Glossary On
Versions: 1 2 3 4 5 6 7 8 9 10 11 12 13 14 15 16 17 18 19 20 21 22 23 24
000
FTUS45 KGJT 300531
TAFMTJ
TAF
KMTJ 300531Z 3006/3106 14005KT P6SM VCSH SCT070 OVC090
     FM300900 12004KT P6SM VCSH SCT035 SCT050 BKN070
     FM301500 VRB03KT P6SM VCSH BKN050
     FM302000 32005KT 5SM -RA BR OVC030
     FM310000 14005KT 4SM -RA BR OVC015=

USA.gov is the U.S. government's official web portal to all federal, state and local government web resources and services.